Time;durP1;ratioP1;P1;durP2;ratioP2;P2;SDS_P1;SDS_P2;PMS_P1;PMS_P2;Temp;Humidity;BMP_temperature;BMP_pressure;BME280_temperature;BME280_humidity;BME280_pressure;Samples;Min_cycle;Max_cycle;Signal;HPM_P1;HPM_P2
2023/07/05 00:00:33;;;;;;;10.43;9.43;;;;;;;24.02;100.00;98062.47;5051094;28;20219;-58
2023/07/05 00:02:59;;;;;;;10.30;9.30;;;;;;;24.08;100.00;98070.63;5051072;28;20218;-58
2023/07/05 00:05:25;;;;;;;12.25;10.23;;;;;;;23.97;100.00;98058.78;5054382;28;20201;-57
2023/07/05 00:07:50;;;;;;;10.57;9.55;;;;;;;23.95;100.00;98060.00;5091118;28;20649;-57
2023/07/05 00:10:16;;;;;;;12.20;9.55;;;;;;;24.06;100.00;98077.94;5070037;28;20185;-57
2023/07/05 00:12:42;;;;;;;11.77;9.43;;;;;;;23.97;100.00;98073.81;5030445;28;20188;-57
2023/07/05 00:15:08;;;;;;;10.77;9.57;;;;;;;23.40;100.00;98044.22;5030878;28;20194;-58
2023/07/05 00:17:34;;;;;;;12.32;10.25;;;;;;;23.54;100.00;98072.38;5031111;28;20624;-57
2023/07/05 00:20:01;;;;;;;10.48;9.48;;;;;;;23.62;100.00;98078.31;5030738;28;20789;-57
2023/07/05 00:22:27;;;;;;;16.25;10.40;;;;;;;23.49;100.00;98058.91;5030774;28;20193;-57
2023/07/05 00:24:56;;;;;;;10.85;9.75;;;;;;;23.56;100.00;98080.91;4991272;28;20191;-57
2023/07/05 00:27:24;;;;;;;10.18;9.18;;;;;;;23.52;100.00;98069.06;4991294;28;20309;-57
2023/07/05 00:29:53;;;;;;;10.15;9.00;;;;;;;23.35;100.00;98049.25;4991241;28;20187;-57
2023/07/05 00:32:19;;;;;;;11.20;10.13;;;;;;;23.12;100.00;98056.59;4991249;28;20175;-57
2023/07/05 00:34:44;;;;;;;11.00;9.73;;;;;;;23.18;100.00;98045.28;4991211;28;20648;-57
2023/07/05 00:37:10;;;;;;;10.93;9.70;;;;;;;23.24;100.00;98066.47;4991045;28;20270;-57
2023/07/05 00:39:35;;;;;;;10.75;9.45;;;;;;;23.01;100.00;98055.28;4991119;28;20187;-57
2023/07/05 00:42:01;;;;;;;10.63;9.52;;;;;;;23.00;100.00;98073.94;5006868;28;20191;-57
2023/07/05 00:44:27;;;;;;;10.85;9.52;;;;;;;22.99;100.00;98073.16;5022748;28;20205;-57
2023/07/05 00:47:04;;;;;;;10.60;9.50;;;;;;;22.93;100.00;98052.81;5030069;28;20189;-57
2023/07/05 00:49:36;;;;;;;10.60;9.60;;;;;;;23.16;100.00;98065.75;5030301;28;20273;-57
2023/07/05 00:52:11;;;;;;;10.90;9.80;;;;;;;23.26;100.00;98061.00;5030266;28;20182;-58
2023/07/05 00:54:50;;;;;;;11.38;10.18;;;;;;;23.33;100.00;98064.50;5029994;28;20212;-57
2023/07/05 00:57:26;;;;;;;11.40;9.85;;;;;;;23.36;100.00;98059.63;4971564;28;20199;-57
2023/07/05 00:59:57;;;;;;;10.35;8.95;;;;;;;23.29;100.00;98034.19;4971306;28;20187;-57
2023/07/05 01:02:23;;;;;;;11.55;9.65;;;;;;;23.47;100.00;98056.47;4972254;28;20187;-58
2023/07/05 01:04:49;;;;;;;12.25;10.00;;;;;;;23.22;100.00;98035.97;4990681;28;20254;-57
2023/07/05 01:07:14;;;;;;;11.50;10.35;;;;;;;23.33;100.00;98064.50;4990759;28;20211;-57
2023/07/05 01:09:40;;;;;;;11.27;10.02;;;;;;;23.13;100.00;98030.00;4990536;28;20250;-57
2023/07/05 01:12:22;;;;;;;11.32;10.05;;;;;;;23.24;100.00;98048.00;4990529;28;20282;-57
2023/07/05 01:15:06;;;;;;;10.85;9.85;;;;;;;23.25;100.00;98046.16;4990538;28;20616;-57
2023/07/05 01:17:52;;;;;;;11.35;10.13;;;;;;;23.16;100.00;98044.66;4990503;28;20183;-57
2023/07/05 01:20:52;;;;;;;11.23;10.05;;;;;;;23.03;100.00;98037.47;4990491;28;20191;-58
2023/07/05 01:23:39;;;;;;;14.60;10.95;;;;;;;23.03;100.00;98036.63;4990194;28;20183;-57
2023/07/05 01:26:38;;;;;;;11.13;9.82;;;;;;;22.89;100.00;98006.69;5017302;28;20574;-57
2023/07/05 01:29:27;;;;;;;12.15;10.13;;;;;;;23.06;100.00;98025.69;5029583;28;20210;-57
2023/07/05 01:32:31;;;;;;;11.25;10.07;;;;;;;23.06;100.00;98025.69;5029743;28;20652;-57
2023/07/05 01:35:05;;;;;;;10.60;9.10;;;;;;;22.97;100.00;98011.00;5021445;28;20268;-57
2023/07/05 01:37:37;;;;;;;11.45;10.38;;;;;;;23.06;100.00;98010.66;4990248;28;20194;-57
2023/07/05 01:40:35;;;;;;;11.00;10.00;;;;;;;23.14;100.00;98017.63;4989901;28;20187;-57
2023/07/05 01:43:10;;;;;;;11.48;10.48;;;;;;;22.89;100.00;97982.16;4989965;28;20187;-57
2023/07/05 01:46:01;;;;;;;11.63;10.43;;;;;;;23.05;100.00;98011.69;4990111;28;20187;-57
2023/07/05 01:48:42;;;;;;;11.38;10.20;;;;;;;23.13;100.00;98016.00;4989864;28;20218;-57
2023/07/05 01:51:25;;;;;;;10.93;9.65;;;;;;;23.05;100.00;98026.69;4990091;28;20199;-57
2023/07/05 01:54:04;;;;;;;11.88;9.65;;;;;;;23.12;100.00;98027.53;4989993;28;20183;-57
2023/07/05 01:56:36;;;;;;;10.45;9.52;;;;;;;23.02;100.00;98019.19;4990097;28;20186;-57
2023/07/05 01:59:04;;;;;;;12.13;9.82;;;;;;;22.89;100.00;98021.72;4990026;28;20765;-57
2023/07/05 02:01:32;;;;;;;14.30;10.45;;;;;;;22.91;100.00;98043.44;4989931;28;20194;-57
2023/07/05 02:03:59;;;;;;;11.73;10.55;;;;;;;22.80;100.00;98031.59;4989907;28;20197;-57
2023/07/05 02:06:26;;;;;;;12.20;10.50;;;;;;;22.70;100.00;98025.00;4990213;28;20187;-57
2023/07/05 02:08:51;;;;;;;12.05;10.70;;;;;;;22.60;100.00;98022.69;5015954;28;20267;-56
2023/07/05 02:11:18;;;;;;;11.50;10.20;;;;;;;22.53;100.00;98028.91;5073699;28;20180;-56
2023/07/05 02:13:43;;;;;;;11.23;10.13;;;;;;;22.60;100.00;98050.91;5112082;28;20665;-56
2023/07/05 02:16:08;;;;;;;12.15;10.38;;;;;;;22.42;100.00;98032.00;5112055;28;20163;-56
2023/07/05 02:18:34;;;;;;;12.07;10.55;;;;;;;22.48;100.00;98057.66;5089108;28;20260;-56
2023/07/05 02:20:59;;;;;;;11.73;10.43;;;;;;;22.41;100.00;98046.19;5089037;28;20190;-56
2023/07/05 02:23:25;;;;;;;11.70;9.98;;;;;;;22.29;100.00;98030.06;5089194;28;20184;-57
2023/07/05 02:25:51;;;;;;;11.48;10.38;;;;;;;22.44;100.00;98045.88;5089123;28;20204;-56
2023/07/05 02:28:16;;;;;;;10.93;9.82;;;;;;;22.42;100.00;98064.47;5068583;28;20751;-56
2023/07/05 02:30:42;;;;;;;13.65;10.95;;;;;;;22.49;100.00;98061.94;5068811;28;20188;-56
2023/07/05 02:33:08;;;;;;;10.75;9.65;;;;;;;22.47;100.00;98066.56;5068740;28;20215;-57
2023/07/05 02:35:38;;;;;;;12.50;11.20;;;;;;;22.53;100.00;98066.66;5072292;28;20219;-57
2023/07/05 02:38:05;;;;;;;13.38;10.50;;;;;;;22.45;100.00;98044.84;5072450;28;20189;-57
2023/07/05 02:40:30;;;;;;;11.20;9.88;;;;;;;22.64;100.00;98060.88;5072526;28;20839;-57
2023/07/05 02:42:57;;;;;;;12.45;10.30;;;;;;;22.65;100.00;98064.31;5072501;28;20184;-56
2023/07/05 02:45:23;;;;;;;11.48;10.27;;;;;;;22.57;100.00;98061.81;5072317;28;20199;-56
2023/07/05 02:47:48;;;;;;;11.68;10.55;;;;;;;22.42;100.00;98037.28;5072114;28;20220;-56
2023/07/05 02:50:17;;;;;;;10.85;9.75;;;;;;;22.51;100.00;98050.22;5056850;28;20612;-57
2023/07/05 02:52:43;;;;;;;11.43;10.25;;;;;;;22.45;100.00;98034.31;5052203;28;20200;-56
2023/07/05 02:55:09;;;;;;;11.35;10.18;;;;;;;22.37;100.00;98039.69;5052392;28;20185;-56
2023/07/05 02:57:34;;;;;;;11.15;10.05;;;;;;;22.45;100.00;98052.75;5055273;28;20237;-56
2023/07/05 02:59:59;;;;;;;10.95;9.82;;;;;;;22.60;100.00;98072.00;5106525;28;20189;-56
2023/07/05 03:02:25;;;;;;;13.13;10.15;;;;;;;22.51;100.00;98041.47;5115280;28;20653;-56
2023/07/05 03:04:50;;;;;;;12.00;9.48;;;;;;;22.55;100.00;98042.72;5115216;28;20304;-56
2023/07/05 03:07:16;;;;;;;11.18;9.98;;;;;;;22.64;100.00;98068.78;5115065;28;20680;-56
2023/07/05 03:09:41;;;;;;;10.65;9.52;;;;;;;22.57;100.00;98064.44;5115067;28;20193;-56
2023/07/05 03:12:07;;;;;;;12.13;10.90;;;;;;;22.51;100.00;98055.47;5115147;28;20325;-56
2023/07/05 03:14:32;;;;;;;10.82;9.73;;;;;;;22.54;100.00;98041.91;5115006;28;20732;-56
2023/07/05 03:16:58;;;;;;;11.98;10.27;;;;;;;22.70;100.00;98056.66;5092072;28;20274;-56
2023/07/05 03:19:23;;;;;;;12.40;9.57;;;;;;;22.61;100.00;98052.53;5092385;28;20183;-56
2023/07/05 03:21:49;;;;;;;11.57;10.43;;;;;;;22.51;100.00;98031.75;5092092;28;20233;-56
2023/07/05 03:24:14;;;;;;;10.98;9.88;;;;;;;22.62;100.00;98038.31;5092097;28;20180;-56
2023/07/05 03:26:39;;;;;;;11.23;10.10;;;;;;;22.52;100.00;98029.91;5092075;28;20186;-56
2023/07/05 03:29:05;;;;;;;11.07;9.95;;;;;;;22.55;100.00;98054.06;5091876;28;20211;-56
2023/07/05 03:31:31;;;;;;;12.85;10.20;;;;;;;22.73;100.00;98062.34;5091945;28;20245;-56
2023/07/05 03:33:56;;;;;;;11.07;9.52;;;;;;;22.70;100.00;98046.09;5091854;28;20187;-56
2023/07/05 03:36:22;;;;;;;10.57;9.65;;;;;;;22.56;100.00;98028.53;5091861;28;20173;-56
2023/07/05 03:38:51;;;;;;;12.02;10.18;;;;;;;22.55;100.00;98011.88;5091781;28;20713;-56
2023/07/05 03:41:22;;;;;;;10.95;9.95;;;;;;;22.74;100.00;98045.56;5091717;28;20187;-56
2023/07/05 03:43:52;;;;;;;11.15;10.10;;;;;;;22.87;100.00;98044.81;5091778;28;20184;-56
2023/07/05 03:46:17;;;;;;;11.68;9.88;;;;;;;22.64;100.00;98015.19;5091529;28;20210;-56
2023/07/05 03:48:45;;;;;;;10.35;9.35;;;;;;;22.56;100.00;98015.34;5091360;28;20226;-56
2023/07/05 03:51:12;;;;;;;12.90;10.98;;;;;;;22.73;100.00;98020.16;5091554;28;20176;-56
2023/07/05 03:53:38;;;;;;;11.15;10.10;;;;;;;22.72;100.00;98013.25;5095869;28;20203;-56
2023/07/05 03:56:06;;;;;;;15.50;10.60;;;;;;;22.85;100.00;98036.28;5051013;28;20726;-56
2023/07/05 03:58:32;;;;;;;10.85;9.85;;;;;;;22.85;100.00;98026.53;5050723;28;20247;-56
2023/07/05 04:01:14;;;;;;;15.38;9.80;;;;;;;22.91;100.00;98038.16;5051118;28;20177;-57
2023/07/05 04:03:40;;;;;;;11.73;9.63;;;;;;;22.93;100.00;98034.34;5051094;28;20192;-56
2023/07/05 04:06:06;;;;;;;13.57;10.48;;;;;;;22.90;100.00;98026.00;5051213;28;20192;-56
2023/07/05 04:08:31;;;;;;;10.77;9.75;;;;;;;22.82;100.00;98016.38;5011181;28;20218;-56
2023/07/05 04:10:57;;;;;;;11.70;10.43;;;;;;;22.86;100.00;98019.44;5011045;28;20656;-56
2023/07/05 04:13:22;;;;;;;11.55;10.10;;;;;;;22.97;100.00;98034.78;5011096;28;20572;-56
2023/07/05 04:16:03;;;;;;;12.82;9.68;;;;;;;23.08;100.00;98044.81;5011080;28;20190;-57
2023/07/05 04:18:30;;;;;;;11.52;10.38;;;;;;;22.98;100.00;98033.75;5010891;28;20229;-56
2023/07/05 04:20:55;;;;;;;10.43;9.43;;;;;;;23.13;100.00;98048.47;5010941;28;20277;-56
2023/07/05 04:23:21;;;;;;;11.27;10.18;;;;;;;23.02;100.00;98032.38;5010986;28;20313;-56
2023/07/05 04:25:46;;;;;;;11.43;10.20;;;;;;;23.20;100.00;98054.66;4971778;28;20184;-56
2023/07/05 04:28:11;;;;;;;13.48;9.68;;;;;;;23.30;100.00;98054.34;4990545;28;20728;-57
2023/07/05 04:30:37;;;;;;;11.25;10.15;;;;;;;23.31;100.00;98059.41;4991244;28;20190;-57
2023/07/05 04:33:02;;;;;;;11.75;10.27;;;;;;;23.45;100.00;98061.13;4991196;28;20194;-57
2023/07/05 04:35:28;;;;;;;10.35;9.30;;;;;;;23.49;100.00;98058.91;4971536;28;20629;-56
2023/07/05 04:37:53;;;;;;;16.10;11.88;;;;;;;23.66;100.00;98054.94;4971693;28;20569;-56
2023/07/05 04:40:21;;;;;;;11.20;9.63;;;;;;;23.57;100.00;98029.69;4971683;28;20188;-57
2023/07/05 04:42:46;;;;;;;11.23;10.13;;;;;;;23.86;100.00;98062.75;4988015;28;20206;-56
2023/07/05 04:45:12;;;;;;;10.48;9.48;;;;;;;23.95;100.00;98065.28;4971382;28;20559;-57
2023/07/05 04:47:37;;;;;;;13.68;9.80;;;;;;;24.04;100.00;98063.06;4971288;28;20305;-57
2023/07/05 04:50:03;;;;;;;10.65;9.55;;;;;;;24.10;100.00;98064.91;4985784;28;20183;-57
2023/07/05 04:52:29;;;;;;;12.98;9.60;;;;;;;24.09;99.10;98042.13;4990784;28;20206;-56
2023/07/05 04:54:54;;;;;;;10.25;9.25;;;;;;;24.00;98.50;98036.44;4990844;28;20187;-56
2023/07/05 04:57:20;;;;;;;11.95;9.48;;;;;;;24.18;98.87;98056.81;5004748;28;20240;-56
2023/07/05 04:59:45;;;;;;;11.23;9.48;;;;;;;24.04;98.53;98028.69;5010363;28;20186;-56
2023/07/05 05:02:11;;;;;;;11.73;10.63;;;;;;;24.26;97.74;98046.06;5010246;28;20186;-56
2023/07/05 05:04:37;;;;;;;12.32;9.52;;;;;;;24.34;97.25;98069.69;5010643;28;20178;-56
2023/07/05 05:07:05;;;;;;;11.50;9.95;;;;;;;24.06;98.10;98030.34;5054742;28;20271;-56
2023/07/05 05:09:30;;;;;;;13.00;9.77;;;;;;;24.26;98.29;98059.28;5069880;28;20188;-56
2023/07/05 05:11:56;;;;;;;9.77;8.77;;;;;;;24.15;97.69;98025.47;5069880;28;20555;-56
2023/07/05 05:14:21;;;;;;;10.50;9.50;;;;;;;24.27;97.94;98042.41;5070090;28;20230;-56
2023/07/05 05:16:46;;;;;;;11.07;10.02;;;;;;;24.41;98.38;98035.31;5069721;28;20188;-56
2023/07/05 05:19:12;;;;;;;10.85;9.55;;;;;;;24.50;96.80;98053.44;5070002;28;20204;-56
2023/07/05 05:21:37;;;;;;;11.20;10.15;;;;;;;24.31;97.13;98019.84;5073435;28;20187;-57
2023/07/05 05:24:03;;;;;;;12.63;9.68;;;;;;;24.48;97.26;98039.59;5112666;28;20653;-56
2023/07/05 05:26:28;;;;;;;10.13;9.23;;;;;;;24.62;95.68;98043.13;5112625;28;20587;-56
2023/07/05 05:28:54;;;;;;;10.23;9.05;;;;;;;24.53;95.95;98015.19;5112491;28;20194;-57
2023/07/05 05:31:19;;;;;;;11.30;9.52;;;;;;;24.72;95.40;98044.34;5092839;28;20187;-57
2023/07/05 05:33:46;;;;;;;11.30;10.23;;;;;;;24.83;94.44;98043.75;5092106;28;20653;-57
2023/07/05 05:36:11;;;;;;;10.98;9.65;;;;;;;24.77;94.72;98031.31;5091990;28;20179;-57
2023/07/05 05:38:37;;;;;;;13.40;9.73;;;;;;;24.82;95.74;98039.47;5092135;28;20174;-56
2023/07/05 05:41:07;;;;;;;10.38;9.35;;;;;;;24.94;94.64;98045.78;5092087;28;20263;-57
2023/07/05 05:43:33;;;;;;;10.52;9.50;;;;;;;24.89;93.02;98024.41;5049393;28;20261;-57
2023/07/05 05:45:58;;;;;;;10.48;9.50;;;;;;;25.10;93.43;98042.72;5049393;28;20272;-57
2023/07/05 05:48:23;;;;;;;10.45;9.45;;;;;;;25.24;92.90;98046.19;5049142;28;20246;-57
2023/07/05 05:50:49;;;;;;;10.07;9.18;;;;;;;25.20;92.80;98037.81;5049399;28;20183;-57
2023/07/05 05:53:14;;;;;;;10.02;9.02;;;;;;;25.28;93.73;98034.16;5049360;28;20185;-57
2023/07/05 05:55:40;;;;;;;10.07;9.18;;;;;;;25.54;91.52;98058.75;5049313;28;20675;-57
2023/07/05 05:58:07;;;;;;;13.52;9.52;;;;;;;25.49;89.88;98042.66;5049105;28;20189;-56
2023/07/05 06:00:33;;;;;;;11.50;10.40;;;;;;;25.68;88.49;98052.44;5029253;28;20614;-57
2023/07/05 06:02:58;;;;;;;11.02;9.93;;;;;;;25.56;87.65;98040.84;5029315;28;20186;-57
2023/07/05 06:05:25;;;;;;;10.88;9.88;;;;;;;25.50;88.20;98032.91;5029185;28;20731;-57
2023/07/05 06:07:50;;;;;;;10.05;9.07;;;;;;;25.77;88.20;98042.41;5029221;28;20738;-57
2023/07/05 06:10:15;;;;;;;10.57;9.48;;;;;;;25.73;88.03;98039.34;5032099;28;20186;-57
2023/07/05 06:12:41;;;;;;;10.32;9.35;;;;;;;25.83;87.59;98029.13;5033302;28;20306;-56
2023/07/05 06:15:12;;;;;;;11.00;9.25;;;;;;;25.99;85.96;98049.06;5048271;28;20185;-57
2023/07/05 06:17:38;;;;;;;13.40;9.23;;;;;;;26.00;86.10;98046.22;5033102;28;20276;-57
2023/07/05 06:20:07;;;;;;;10.93;9.82;;;;;;;26.11;86.28;98040.25;5033081;28;20297;-57
2023/07/05 06:22:36;;;;;;;12.88;10.18;;;;;;;26.39;86.66;98051.31;5033099;28;20254;-57
2023/07/05 06:25:03;;;;;;;12.05;10.90;;;;;;;26.35;86.05;98020.13;5032987;28;20192;-56
2023/07/05 06:27:28;;;;;;;11.68;10.57;;;;;;;26.56;85.45;98041.84;5032827;28;20304;-57
2023/07/05 06:29:54;;;;;;;16.30;11.57;;;;;;;26.58;87.21;98029.16;5032859;28;20269;-57
2023/07/05 06:32:19;;;;;;;14.07;11.55;;;;;;;26.74;87.21;98039.28;5066101;28;20230;-57
2023/07/05 06:34:45;;;;;;;17.42;10.90;;;;;;;26.82;86.87;98035.53;5072831;28;20181;-57
2023/07/05 06:37:11;;;;;;;14.43;11.40;;;;;;;26.90;86.00;98038.75;5072978;28;20181;-57
2023/07/05 06:39:37;;;;;;;17.48;11.98;;;;;;;26.93;86.58;98040.16;5072731;28;20183;-57
2023/07/05 06:42:03;;;;;;;18.55;13.13;;;;;;;26.97;86.09;98030.72;5072604;28;20181;-57
2023/07/05 06:44:28;;;;;;;17.42;11.40;;;;;;;26.92;86.21;98015.44;5072583;28;20184;-57
2023/07/05 06:46:54;;;;;;;13.80;10.73;;;;;;;27.09;85.81;98024.47;5072446;28;20202;-57
2023/07/05 06:49:19;;;;;;;12.70;10.95;;;;;;;27.17;84.91;98034.84;5090337;28;20212;-57
2023/07/05 06:51:45;;;;;;;12.82;10.95;;;;;;;27.13;83.00;98004.41;5095117;28;20183;-57
2023/07/05 06:54:10;;;;;;;12.18;10.85;;;;;;;27.19;82.84;98005.41;5094832;28;20171;-57
2023/07/05 06:56:36;;;;;;;12.73;11.43;;;;;;;27.27;83.36;98007.78;5095113;28;20180;-57
2023/07/05 06:59:01;;;;;;;15.50;12.05;;;;;;;27.47;83.35;98035.78;5095007;28;20175;-57
2023/07/05 07:01:27;;;;;;;12.10;10.65;;;;;;;27.51;83.35;98036.16;5094687;28;20276;-57
2023/07/05 07:03:52;;;;;;;13.57;11.60;;;;;;;27.52;82.17;98030.59;5095229;28;20310;-57
2023/07/05 07:06:18;;;;;;;12.98;11.48;;;;;;;27.52;81.67;98025.28;5094928;28;20182;-57
2023/07/05 07:08:43;;;;;;;12.82;11.32;;;;;;;27.54;81.61;98033.88;5094776;28;20192;-57
2023/07/05 07:11:11;;;;;;;14.00;11.65;;;;;;;27.66;81.55;98033.94;5094796;28;20637;-57
2023/07/05 07:13:36;;;;;;;19.27;12.23;;;;;;;27.80;81.33;98051.38;5094704;28;20184;-57
2023/07/05 07:16:03;;;;;;;14.52;11.82;;;;;;;27.86;81.30;98042.53;5071893;28;20609;-57
2023/07/05 07:18:29;;;;;;;14.60;11.32;;;;;;;27.89;81.50;98050.91;5071977;28;20193;-57
2023/07/05 07:20:54;;;;;;;18.67;11.15;;;;;;;27.94;81.50;98048.34;5071488;28;20195;-57
2023/07/05 07:23:21;;;;;;;14.88;12.32;;;;;;;27.93;80.82;98046.72;5071719;28;20180;-57
2023/07/05 07:25:47;;;;;;;14.35;12.00;;;;;;;27.79;81.37;98013.34;5071735;28;20692;-57
2023/07/05 07:28:13;;;;;;;16.92;12.73;;;;;;;27.87;81.37;98015.72;5071631;28;20220;-57
2023/07/05 07:30:38;;;;;;;15.48;12.45;;;;;;;28.03;80.98;98035.56;5071791;28;20321;-57
2023/07/05 07:33:04;;;;;;;19.75;12.88;;;;;;;28.03;81.26;98028.41;5071757;28;20180;-57
2023/07/05 07:35:29;;;;;;;16.13;11.82;;;;;;;28.12;81.48;98040.38;5071614;28;20185;-57
2023/07/05 07:37:54;;;;;;;17.85;12.02;;;;;;;28.16;80.13;98022.91;5071900;28;20195;-58
2023/07/05 07:40:20;;;;;;;17.98;12.73;;;;;;;28.32;79.35;98035.59;5071638;28;20179;-57
2023/07/05 07:42:45;;;;;;;17.45;12.93;;;;;;;28.19;80.09;98011.81;5071544;28;20654;-58
2023/07/05 07:45:10;;;;;;;14.40;12.27;;;;;;;28.33;79.46;98034.53;5071534;28;20259;-57
2023/07/05 07:47:36;;;;;;;22.60;13.18;;;;;;;28.44;78.70;98047.13;5071247;28;20243;-57
2023/07/05 07:50:01;;;;;;;14.90;12.45;;;;;;;28.31;77.95;98018.00;5071411;28;20354;-57
2023/07/05 07:52:27;;;;;;;19.48;12.88;;;;;;;28.37;77.62;98038.41;5071663;28;20211;-57
2023/07/05 07:54:55;;;;;;;17.45;12.60;;;;;;;28.42;77.47;98049.19;5087473;28;20270;-57
2023/07/05 07:57:21;;;;;;;18.88;13.65;;;;;;;28.50;77.80;98059.50;5093847;28;20184;-58
2023/07/05 07:59:46;;;;;;;15.32;13.73;;;;;;;28.47;75.64;98059.16;5093933;28;20174;-57
2023/07/05 08:02:13;;;;;;;14.60;12.88;;;;;;;28.46;76.40;98052.22;5093447;28;20168;-57
2023/07/05 08:04:43;;;;;;;14.65;13.10;;;;;;;28.51;76.06;98050.50;5093794;28;20333;-57
2023/07/05 08:07:09;;;;;;;14.18;12.77;;;;;;;28.48;75.21;98044.81;5093622;28;20547;-57
2023/07/05 08:09:34;;;;;;;19.05;13.45;;;;;;;28.43;75.81;98056.16;5093635;28;20182;-57
2023/07/05 08:11:59;;;;;;;21.17;13.07;;;;;;;28.26;76.43;98033.00;5093899;28;20259;-57
2023/07/05 08:14:25;;;;;;;15.05;12.48;;;;;;;28.53;76.94;98060.91;5093572;28;20214;-57
2023/07/05 08:16:50;;;;;;;16.55;13.40;;;;;;;28.54;77.29;98043.91;5093540;28;20176;-57
2023/07/05 08:19:16;;;;;;;17.38;14.05;;;;;;;28.58;76.37;98056.53;5070633;28;20296;-57
2023/07/05 08:21:44;;;;;;;17.15;14.07;;;;;;;28.51;76.51;98029.19;5070670;28;20184;-57
2023/07/05 08:24:10;;;;;;;14.38;12.45;;;;;;;28.70;75.56;98041.41;5030622;28;20189;-57
2023/07/05 08:26:35;;;;;;;19.73;13.80;;;;;;;28.75;74.46;98041.50;5030683;28;20203;-57
2023/07/05 08:29:02;;;;;;;18.75;13.95;;;;;;;28.90;74.74;98043.75;5030608;28;20263;-57
2023/07/05 08:31:29;;;;;;;19.25;13.07;;;;;;;28.96;75.26;98049.00;5029952;28;20204;-57
2023/07/05 08:33:55;;;;;;;17.83;13.32;;;;;;;28.98;75.42;98030.94;5030541;28;20229;-57
2023/07/05 08:36:38;;;;;;;18.23;14.00;;;;;;;29.13;74.31;98033.97;5030554;28;20684;-57
2023/07/05 08:39:05;;;;;;;48.75;41.22;;;;;;;28.86;75.13;98027.41;5030424;28;20189;-58
2023/07/05 08:41:43;;;;;;;19.25;14.52;;;;;;;28.92;75.72;98039.81;5030506;28;20560;-58
2023/07/05 08:44:23;;;;;;;19.38;13.55;;;;;;;28.81;76.53;98021.97;5030365;28;20593;-58
2023/07/05 08:46:57;;;;;;;17.35;13.90;;;;;;;28.68;75.84;98024.84;5030387;28;20177;-55
2023/07/05 08:49:32;;;;;;;15.23;13.73;;;;;;;28.73;76.35;98032.94;5032902;28;20228;-55
2023/07/05 08:51:59;;;;;;;15.80;14.00;;;;;;;28.93;75.92;98035.31;5050272;28;20177;-55
2023/07/05 08:54:32;;;;;;;18.13;14.20;;;;;;;29.03;75.93;98028.38;5053989;28;20216;-55
2023/07/05 08:57:10;;;;;;;16.88;13.50;;;;;;;29.05;74.66;98015.66;5070043;28;20271;-55
2023/07/05 08:59:48;;;;;;;16.70;12.30;;;;;;;29.27;73.64;98035.34;5069994;28;20188;-55
2023/07/05 09:02:16;;;;;;;18.13;12.85;;;;;;;29.32;74.27;98026.66;5070060;28;20168;-55
2023/07/05 09:04:47;;;;;;;17.63;13.10;;;;;;;29.44;73.85;98036.25;5070022;28;20177;-55
2023/07/05 09:07:24;;;;;;;15.57;12.32;;;;;;;29.53;71.74;98034.09;5069816;28;20192;-55
2023/07/05 09:10:26;;;;;;;16.05;13.27;;;;;;;29.39;71.65;98022.81;5069969;28;20253;-55
2023/07/05 09:13:07;;;;;;;14.90;12.77;;;;;;;29.47;71.83;98032.31;5069935;28;20211;-55
2023/07/05 09:15:42;;;;;;;14.48;12.98;;;;;;;29.50;72.17;98022.00;5069912;28;20180;-55
2023/07/05 09:18:26;;;;;;;13.95;12.45;;;;;;;29.68;69.67;98032.56;5069870;28;20248;-58
2023/07/05 09:21:03;;;;;;;15.00;11.73;;;;;;;29.71;69.31;98020.59;5069785;28;20698;-57
2023/07/05 09:23:45;;;;;;;12.40;11.15;;;;;;;29.89;68.74;98023.94;5069737;28;20221;-56
2023/07/05 09:26:28;;;;;;;12.52;10.95;;;;;;;29.94;66.35;98020.53;5069687;28;20184;-56
2023/07/05 09:29:13;;;;;;;11.82;9.45;;;;;;;30.05;62.70;98017.84;5069681;28;20215;-56
2023/07/05 09:31:39;;;;;;;12.02;9.73;;;;;;;30.14;62.45;98011.09;5078936;28;20328;-56
2023/07/05 09:34:32;;;;;;;10.35;9.25;;;;;;;30.14;60.17;97989.75;5092126;28;20541;-57
2023/07/05 09:37:00;;;;;;;11.00;9.75;;;;;;;30.21;61.57;98001.09;5092198;28;20176;-56
2023/07/05 09:39:55;;;;;;;11.60;9.82;;;;;;;30.21;60.93;97998.41;5092089;28;20195;-56
2023/07/05 09:42:35;;;;;;;11.18;9.45;;;;;;;30.19;61.36;97987.19;5049373;28;20288;-57
2023/07/05 09:45:01;;;;;;;10.07;8.73;;;;;;;30.33;59.65;97993.03;5049482;28;20195;-56
2023/07/05 09:47:27;;;;;;;11.15;10.05;;;;;;;30.39;61.09;97971.53;5049038;28;20723;-56
2023/07/05 09:49:52;;;;;;;11.10;10.00;;;;;;;30.42;61.00;97979.03;5049396;28;20184;-56
2023/07/05 09:52:23;;;;;;;11.00;9.88;;;;;;;30.38;60.45;97975.22;5049629;28;20189;-56
2023/07/05 09:54:54;;;;;;;13.98;9.60;;;;;;;30.55;59.88;97985.94;5049437;28;20186;-56
2023/07/05 09:57:24;;;;;;;13.70;9.20;;;;;;;30.60;59.55;97984.16;5049402;28;20730;-56
2023/07/05 09:59:52;;;;;;;12.57;10.30;;;;;;;30.54;60.95;97981.66;5049257;28;20192;-57
2023/07/05 10:02:22;;;;;;;11.50;9.77;;;;;;;30.59;61.48;97969.19;5049216;28;20573;-56
2023/07/05 10:04:58;;;;;;;9.02;7.93;;;;;;;30.56;57.72;97972.38;5049243;28;20199;-56
2023/07/05 10:07:28;;;;;;;8.50;7.70;;;;;;;30.79;56.01;97974.88;5049170;28;20304;-56
2023/07/05 10:10:08;;;;;;;9.20;7.90;;;;;;;31.02;56.32;97985.41;5029093;28;20189;-56
2023/07/05 10:12:40;;;;;;;8.27;7.55;;;;;;;31.18;56.52;97981.94;5029233;28;20197;-56
2023/07/05 10:15:23;;;;;;;9.85;8.65;;;;;;;31.23;56.77;97960.63;5029176;28;20255;-56
2023/07/05 10:17:54;;;;;;;11.88;9.43;;;;;;;31.54;56.67;97984.03;5031684;28;20588;-56
2023/07/05 10:20:37;;;;;;;13.20;10.27;;;;;;;31.38;58.79;97968.84;5049081;28;20660;-56
2023/07/05 10:23:14;;;;;;;13.02;10.40;;;;;;;31.54;59.27;97984.03;5049027;28;20239;-57
2023/07/05 10:25:41;;;;;;;10.63;9.25;;;;;;;31.73;58.38;97979.22;5049038;28;20192;-57
2023/07/05 10:28:11;;;;;;;9.35;8.48;;;;;;;31.56;56.20;97963.19;5048967;28;20208;-57
2023/07/05 10:30:55;;;;;;;10.38;8.93;;;;;;;31.63;55.01;97974.50;5049042;28;20181;-57
2023/07/05 10:33:25;;;;;;;11.88;8.68;;;;;;;31.52;55.41;97972.75;5048905;28;20195;-57
2023/07/05 10:36:11;;;;;;;9.98;8.48;;;;;;;31.40;56.37;97958.69;5048867;28;20197;-57
2023/07/05 10:38:39;;;;;;;10.80;9.00;;;;;;;31.62;56.13;97956.84;5049032;28;20662;-58
2023/07/05 10:41:20;;;;;;;11.63;8.88;;;;;;;31.86;55.78;97952.88;5073381;28;20252;-58
2023/07/05 10:43:53;;;;;;;13.20;9.63;;;;;;;31.74;55.94;97949.53;5068772;28;20794;-57
2023/07/05 10:46:22;;;;;;;11.73;9.02;;;;;;;31.75;57.36;97958.34;5068923;28;20177;-57
2023/07/05 10:48:49;;;;;;;11.32;9.30;;;;;;;31.64;58.20;97952.06;5068678;28;20232;-58
2023/07/05 10:51:23;;;;;;;10.98;9.85;;;;;;;31.27;56.56;97928.84;5068869;28;20177;-58
2023/07/05 10:54:03;;;;;;;10.60;8.75;;;;;;;31.31;58.48;97946.81;5068726;28;20199;-58
2023/07/05 10:56:33;;;;;;;10.40;9.45;;;;;;;31.23;59.05;97955.25;5031760;28;20194;-57
2023/07/05 10:59:20;;;;;;;10.65;9.65;;;;;;;31.20;58.76;97950.44;5032434;28;20723;-57
2023/07/05 11:01:54;;;;;;;10.20;9.07;;;;;;;31.12;58.43;97961.50;5032444;28;20655;-58
2023/07/05 11:04:24;;;;;;;10.65;9.63;;;;;;;30.99;58.60;97950.31;5032328;28;20228;-57
2023/07/05 11:06:53;;;;;;;12.00;10.18;;;;;;;30.82;59.46;97930.84;4992793;28;20226;-57
2023/07/05 11:09:19;;;;;;;10.65;9.55;;;;;;;30.77;60.96;97938.78;4992770;28;20225;-57
2023/07/05 11:11:53;;;;;;;9.95;8.95;;;;;;;30.77;60.54;97936.91;4992864;28;20282;-57
2023/07/05 11:14:20;;;;;;;13.25;9.50;;;;;;;30.51;64.03;97915.38;4999128;28;20956;-57
2023/07/05 11:16:47;;;;;;;11.35;9.55;;;;;;;30.45;66.08;97941.19;5012337;28;20186;-57
2023/07/05 11:19:17;;;;;;;10.77;9.77;;;;;;;30.45;63.73;97946.53;5012273;28;20183;-57
2023/07/05 11:21:44;;;;;;;13.40;10.63;;;;;;;30.24;69.57;97941.88;5012183;28;20565;-57
2023/07/05 11:24:30;;;;;;;10.95;9.80;;;;;;;30.09;68.44;97936.25;5012174;28;20677;-57
2023/07/05 11:26:55;;;;;;;11.15;9.98;;;;;;;30.01;69.10;97922.47;5022357;28;20273;-57